sensor_id;sensor_type;location;lat;lon;timestamp;temperature;humidity
32322;DHT22;61553;48.994;8.940;2022-12-18T00:02:06;-9.20;99.90
32322;DHT22;61553;48.994;8.940;2022-12-18T00:04:32;-8.90;99.90
32322;DHT22;61553;48.994;8.940;2022-12-18T00:06:58;-9.00;99.90
32322;DHT22;61553;48.994;8.940;2022-12-18T00:09:23;-8.90;99.90
32322;DHT22;61553;48.994;8.940;2022-12-18T00:11:49;-8.80;99.90
32322;DHT22;61553;48.994;8.940;2022-12-18T00:14:15;-8.70;99.90
32322;DHT22;61553;48.994;8.940;2022-12-18T00:16:44;-8.80;99.90
32322;DHT22;61553;48.994;8.940;2022-12-18T00:19:11;-8.90;99.90
32322;DHT22;61553;48.994;8.940;2022-12-18T00:21:37;-9.10;99.90
32322;DHT22;61553;48.994;8.940;2022-12-18T00:24:03;-9.20;99.90
32322;DHT22;61553;48.994;8.940;2022-12-18T00:26:30;-9.30;99.90
32322;DHT22;61553;48.994;8.940;2022-12-18T00:29:02;-9.20;99.90
32322;DHT22;61553;48.994;8.940;2022-12-18T00:31:28;-9.20;99.90
32322;DHT22;61553;48.994;8.940;2022-12-18T00:33:55;-9.10;99.90
32322;DHT22;61553;48.994;8.940;2022-12-18T00:36:26;-9.30;99.90
32322;DHT22;61553;48.994;8.940;2022-12-18T00:38:54;-9.40;99.90
32322;DHT22;61553;48.994;8.940;2022-12-18T00:41:20;-9.40;99.90
32322;DHT22;61553;48.994;8.940;2022-12-18T00:44:06;-9.50;99.90
32322;DHT22;61553;48.994;8.940;2022-12-18T00:46:32;-9.50;99.90
32322;DHT22;61553;48.994;8.940;2022-12-18T00:48:58;-9.50;99.90
32322;DHT22;61553;48.994;8.940;2022-12-18T00:51:24;-9.50;99.90
32322;DHT22;61553;48.994;8.940;2022-12-18T00:53:50;-9.60;99.90
32322;DHT22;61553;48.994;8.940;2022-12-18T00:56:16;-9.60;99.90
32322;DHT22;61553;48.994;8.940;2022-12-18T00:58:42;-9.70;99.90
32322;DHT22;61553;48.994;8.940;2022-12-18T01:01:07;-9.70;99.90
32322;DHT22;61553;48.994;8.940;2022-12-18T01:03:34;-9.70;99.90
32322;DHT22;61553;48.994;8.940;2022-12-18T01:06:04;-9.60;99.90
32322;DHT22;61553;48.994;8.940;2022-12-18T01:08:30;-9.60;99.90
32322;DHT22;61553;48.994;8.940;2022-12-18T01:10:56;-9.60;99.90
32322;DHT22;61553;48.994;8.940;2022-12-18T01:13:21;-9.60;99.90
32322;DHT22;61553;48.994;8.940;2022-12-18T01:15:50;-9.60;99.90
32322;DHT22;61553;48.994;8.940;2022-12-18T01:18:16;-9.60;99.90
32322;DHT22;61553;48.994;8.940;2022-12-18T01:20:42;-9.50;99.90
32322;DHT22;61553;48.994;8.940;2022-12-18T01:23:08;-9.50;99.90
32322;DHT22;61553;48.994;8.940;2022-12-18T01:25:35;-9.40;99.90
32322;DHT22;61553;48.994;8.940;2022-12-18T01:28:01;-9.40;99.90
32322;DHT22;61553;48.994;8.940;2022-12-18T01:30:27;-9.40;99.90
32322;DHT22;61553;48.994;8.940;2022-12-18T01:32:53;-9.40;99.90
32322;DHT22;61553;48.994;8.940;2022-12-18T01:35:19;-9.40;99.90
32322;DHT22;61553;48.994;8.940;2022-12-18T01:37:44;-9.40;99.90
32322;DHT22;61553;48.994;8.940;2022-12-18T01:40:10;-9.30;99.90
32322;DHT22;61553;48.994;8.940;2022-12-18T01:42:36;-9.20;99.90
32322;DHT22;61553;48.994;8.940;2022-12-18T01:45:21;-9.20;99.90
32322;DHT22;61553;48.994;8.940;2022-12-18T01:47:54;-9.20;99.90
32322;DHT22;61553;48.994;8.940;2022-12-18T01:52:54;-9.30;99.90
32322;DHT22;61553;48.994;8.940;2022-12-18T01:55:24;-9.30;99.90
32322;DHT22;61553;48.994;8.940;2022-12-18T01:57:54;-9.40;99.90
32322;DHT22;61553;48.994;8.940;2022-12-18T02:00:21;-9.30;99.90
32322;DHT22;61553;48.994;8.940;2022-12-18T02:02:48;-9.40;99.90
32322;DHT22;61553;48.994;8.940;2022-12-18T02:08:20;-9.40;99.90
32322;DHT22;61553;48.994;8.940;2022-12-18T02:13:53;-9.20;99.90
32322;DHT22;61553;48.994;8.940;2022-12-18T02:18:53;-9.30;99.90
32322;DHT22;61553;48.994;8.940;2022-12-18T02:21:51;-9.30;99.90
32322;DHT22;61553;48.994;8.940;2022-12-18T02:27:25;-9.30;99.90
32322;DHT22;61553;48.994;8.940;2022-12-18T02:29:52;-9.30;99.90
32322;DHT22;61553;48.994;8.940;2022-12-18T02:32:25;-9.30;99.90
32322;DHT22;61553;48.994;8.940;2022-12-18T02:34:54;-9.30;99.90
32322;DHT22;61553;48.994;8.940;2022-12-18T02:37:21;-9.40;99.90
32322;DHT22;61553;48.994;8.940;2022-12-18T02:39:49;-9.30;99.90
32322;DHT22;61553;48.994;8.940;2022-12-18T02:42:16;-9.30;99.90
32322;DHT22;61553;48.994;8.940;2022-12-18T02:44:48;-9.20;99.90
32322;DHT22;61553;48.994;8.940;2022-12-18T02:47:17;-9.10;99.90
32322;DHT22;61553;48.994;8.940;2022-12-18T02:52:28;-9.20;99.90
32322;DHT22;61553;48.994;8.940;2022-12-18T02:57:36;-9.20;99.90
32322;DHT22;61553;48.994;8.940;2022-12-18T03:00:07;-9.20;99.90
32322;DHT22;61553;48.994;8.940;2022-12-18T03:02:56;-9.30;99.90
32322;DHT22;61553;48.994;8.940;2022-12-18T03:05:45;-9.20;99.90
32322;DHT22;61553;48.994;8.940;2022-12-18T03:08:18;-9.20;99.90
32322;DHT22;61553;48.994;8.940;2022-12-18T03:11:01;-9.20;99.90
32322;DHT22;61553;48.994;8.940;2022-12-18T03:13:33;-9.10;99.90
32322;DHT22;61553;48.994;8.940;2022-12-18T03:16:00;-9.10;99.90
32322;DHT22;61553;48.994;8.940;2022-12-18T03:18:35;-9.10;99.90
32322;DHT22;61553;48.994;8.940;2022-12-18T03:21:05;-9.10;99.90
32322;DHT22;61553;48.994;8.940;2022-12-18T03:23:35;-9.10;99.90
32322;DHT22;61553;48.994;8.940;2022-12-18T03:26:07;-9.10;99.90
32322;DHT22;61553;48.994;8.940;2022-12-18T03:28:36;-9.10;99.90
32322;DHT22;61553;48.994;8.940;2022-12-18T03:31:05;-9.20;99.90
32322;DHT22;61553;48.994;8.940;2022-12-18T03:33:43;-9.10;99.90
32322;DHT22;61553;48.994;8.940;2022-12-18T03:36:12;-9.10;99.90
32322;DHT22;61553;48.994;8.940;2022-12-18T03:38:37;-9.10;99.90
32322;DHT22;61553;48.994;8.940;2022-12-18T03:41:27;-9.00;99.90
32322;DHT22;61553;48.994;8.940;2022-12-18T03:44:41;-9.00;99.90
32322;DHT22;61553;48.994;8.940;2022-12-18T03:47:09;-8.90;99.90
32322;DHT22;61553;48.994;8.940;2022-12-18T03:52:22;-9.10;99.90
32322;DHT22;61553;48.994;8.940;2022-12-18T03:54:51;-9.00;99.90
32322;DHT22;61553;48.994;8.940;2022-12-18T03:57:20;-9.00;99.90
32322;DHT22;61553;48.994;8.940;2022-12-18T03:59:50;-9.00;99.90
32322;DHT22;61553;48.994;8.940;2022-12-18T04:02:18;-8.90;99.90
32322;DHT22;61553;48.994;8.940;2022-12-18T04:04:45;-9.00;99.90
32322;DHT22;61553;48.994;8.940;2022-12-18T04:07:13;-9.00;99.90
32322;DHT22;61553;48.994;8.940;2022-12-18T04:09:40;-9.00;99.90
32322;DHT22;61553;48.994;8.940;2022-12-18T04:12:06;-9.00;99.90
32322;DHT22;61553;48.994;8.940;2022-12-18T04:14:32;-9.10;99.90
32322;DHT22;61553;48.994;8.940;2022-12-18T04:17:01;-9.10;99.90
32322;DHT22;61553;48.994;8.940;2022-12-18T04:19:28;-9.00;99.90
32322;DHT22;61553;48.994;8.940;2022-12-18T04:21:53;-8.90;99.90
32322;DHT22;61553;48.994;8.940;2022-12-18T04:24:19;-9.00;99.90
32322;DHT22;61553;48.994;8.940;2022-12-18T04:26:45;-9.00;99.90
32322;DHT22;61553;48.994;8.940;2022-12-18T04:29:11;-9.10;99.90
32322;DHT22;61553;48.994;8.940;2022-12-18T04:31:36;-9.20;99.90
32322;DHT22;61553;48.994;8.940;2022-12-18T04:34:02;-9.20;99.90
32322;DHT22;61553;48.994;8.940;2022-12-18T04:36:28;-9.30;99.90
32322;DHT22;61553;48.994;8.940;2022-12-18T04:38:53;-9.30;99.90
32322;DHT22;61553;48.994;8.940;2022-12-18T04:41:19;-9.30;99.90
32322;DHT22;61553;48.994;8.940;2022-12-18T04:43:45;-9.30;99.90
32322;DHT22;61553;48.994;8.940;2022-12-18T04:46:10;-9.30;99.90
32322;DHT22;61553;48.994;8.940;2022-12-18T04:48:36;-9.30;99.90
32322;DHT22;61553;48.994;8.940;2022-12-18T04:51:03;-9.40;99.90
32322;DHT22;61553;48.994;8.940;2022-12-18T04:53:29;-9.40;99.90
32322;DHT22;61553;48.994;8.940;2022-12-18T04:58:30;-9.30;99.90
32322;DHT22;61553;48.994;8.940;2022-12-18T05:00:55;-9.20;99.90
32322;DHT22;61553;48.994;8.940;2022-12-18T05:03:21;-9.20;99.90
32322;DHT22;61553;48.994;8.940;2022-12-18T05:05:50;-9.30;99.90
32322;DHT22;61553;48.994;8.940;2022-12-18T05:08:16;-9.30;99.90
32322;DHT22;61553;48.994;8.940;2022-12-18T05:10:42;-9.30;99.90
32322;DHT22;61553;48.994;8.940;2022-12-18T05:13:07;-9.30;99.90
32322;DHT22;61553;48.994;8.940;2022-12-18T05:15:33;-9.30;99.90
32322;DHT22;61553;48.994;8.940;2022-12-18T05:18:00;-9.30;99.90
32322;DHT22;61553;48.994;8.940;2022-12-18T05:20:26;-9.30;99.90
32322;DHT22;61553;48.994;8.940;2022-12-18T05:22:52;-9.20;99.90
32322;DHT22;61553;48.994;8.940;2022-12-18T05:25:18;-9.20;99.90
32322;DHT22;61553;48.994;8.940;2022-12-18T05:27:44;-9.20;99.90
32322;DHT22;61553;48.994;8.940;2022-12-18T05:30:10;-9.20;99.90
32322;DHT22;61553;48.994;8.940;2022-12-18T05:32:36;-9.10;99.90
32322;DHT22;61553;48.994;8.940;2022-12-18T05:35:02;-9.10;99.90
32322;DHT22;61553;48.994;8.940;2022-12-18T05:37:28;-9.20;99.90
32322;DHT22;61553;48.994;8.940;2022-12-18T05:39:54;-9.20;99.90
32322;DHT22;61553;48.994;8.940;2022-12-18T05:42:20;-9.20;99.90
32322;DHT22;61553;48.994;8.940;2022-12-18T05:44:45;-9.20;99.90
32322;DHT22;61553;48.994;8.940;2022-12-18T05:47:11;-9.30;99.90
32322;DHT22;61553;48.994;8.940;2022-12-18T05:49:36;-9.30;99.90
32322;DHT22;61553;48.994;8.940;2022-12-18T05:52:02;-9.20;99.90
32322;DHT22;61553;48.994;8.940;2022-12-18T05:54:28;-9.20;99.90
32322;DHT22;61553;48.994;8.940;2022-12-18T05:56:54;-9.20;99.90
32322;DHT22;61553;48.994;8.940;2022-12-18T05:59:19;-9.20;99.90
32322;DHT22;61553;48.994;8.940;2022-12-18T06:01:45;-9.20;99.90
32322;DHT22;61553;48.994;8.940;2022-12-18T06:04:12;-9.20;99.90
32322;DHT22;61553;48.994;8.940;2022-12-18T06:06:37;-9.20;99.90
32322;DHT22;61553;48.994;8.940;2022-12-18T06:09:04;-9.20;99.90
32322;DHT22;61553;48.994;8.940;2022-12-18T06:11:35;-9.10;99.90
32322;DHT22;61553;48.994;8.940;2022-12-18T06:14:02;-9.10;99.90
32322;DHT22;61553;48.994;8.940;2022-12-18T06:16:28;-9.00;99.90
32322;DHT22;61553;48.994;8.940;2022-12-18T06:18:58;-8.90;99.90
32322;DHT22;61553;48.994;8.940;2022-12-18T06:21:24;-8.90;99.90
32322;DHT22;61553;48.994;8.940;2022-12-18T06:23:49;-9.00;99.90
32322;DHT22;61553;48.994;8.940;2022-12-18T06:26:15;-9.10;99.90
32322;DHT22;61553;48.994;8.940;2022-12-18T06:28:41;-9.10;99.90
32322;DHT22;61553;48.994;8.940;2022-12-18T06:31:07;-9.20;99.90
32322;DHT22;61553;48.994;8.940;2022-12-18T06:33:33;-9.10;99.90
32322;DHT22;61553;48.994;8.940;2022-12-18T06:36:10;-9.20;99.90
32322;DHT22;61553;48.994;8.940;2022-12-18T06:38:38;-9.20;99.90
32322;DHT22;61553;48.994;8.940;2022-12-18T06:41:08;-9.30;99.90
32322;DHT22;61553;48.994;8.940;2022-12-18T06:43:34;-9.30;99.90
32322;DHT22;61553;48.994;8.940;2022-12-18T06:46:00;-9.30;99.90
32322;DHT22;61553;48.994;8.940;2022-12-18T06:48:27;-9.30;99.90
32322;DHT22;61553;48.994;8.940;2022-12-18T06:50:53;-9.40;99.90
32322;DHT22;61553;48.994;8.940;2022-12-18T06:53:18;-9.40;99.90
32322;DHT22;61553;48.994;8.940;2022-12-18T06:55:44;-9.50;99.90
32322;DHT22;61553;48.994;8.940;2022-12-18T06:58:10;-9.50;99.90
32322;DHT22;61553;48.994;8.940;2022-12-18T07:00:35;-9.50;99.90
32322;DHT22;61553;48.994;8.940;2022-12-18T07:03:01;-9.50;99.90
32322;DHT22;61553;48.994;8.940;2022-12-18T07:05:27;-9.50;99.90
32322;DHT22;61553;48.994;8.940;2022-12-18T07:07:52;-9.50;99.90
32322;DHT22;61553;48.994;8.940;2022-12-18T07:10:18;-9.50;99.90
32322;DHT22;61553;48.994;8.940;2022-12-18T07:12:44;-9.50;99.90
32322;DHT22;61553;48.994;8.940;2022-12-18T07:15:09;-9.50;99.90
32322;DHT22;61553;48.994;8.940;2022-12-18T07:17:35;-9.60;99.90
32322;DHT22;61553;48.994;8.940;2022-12-18T07:20:01;-9.50;99.90
32322;DHT22;61553;48.994;8.940;2022-12-18T07:22:26;-9.50;99.90
32322;DHT22;61553;48.994;8.940;2022-12-18T07:24:52;-9.50;99.90
32322;DHT22;61553;48.994;8.940;2022-12-18T07:27:18;-9.50;99.90
32322;DHT22;61553;48.994;8.940;2022-12-18T07:29:44;-9.50;99.90
32322;DHT22;61553;48.994;8.940;2022-12-18T07:32:09;-9.50;99.90
32322;DHT22;61553;48.994;8.940;2022-12-18T07:34:35;-9.40;99.90
32322;DHT22;61553;48.994;8.940;2022-12-18T07:37:00;-9.30;99.90
32322;DHT22;61553;48.994;8.940;2022-12-18T07:39:26;-9.30;99.90
32322;DHT22;61553;48.994;8.940;2022-12-18T07:41:52;-9.20;99.90
32322;DHT22;61553;48.994;8.940;2022-12-18T07:44:36;-9.20;99.90
32322;DHT22;61553;48.994;8.940;2022-12-18T07:47:02;-9.20;99.90
32322;DHT22;61553;48.994;8.940;2022-12-18T07:49:28;-9.00;99.90
32322;DHT22;61553;48.994;8.940;2022-12-18T07:51:55;-8.90;99.90
32322;DHT22;61553;48.994;8.940;2022-12-18T07:54:24;-8.90;99.90
32322;DHT22;61553;48.994;8.940;2022-12-18T07:56:51;-8.90;99.90
32322;DHT22;61553;48.994;8.940;2022-12-18T07:59:17;-8.80;99.90
32322;DHT22;61553;48.994;8.940;2022-12-18T08:01:43;-8.70;99.90
32322;DHT22;61553;48.994;8.940;2022-12-18T08:04:08;-8.60;99.90
32322;DHT22;61553;48.994;8.940;2022-12-18T08:06:34;-8.60;99.90
32322;DHT22;61553;48.994;8.940;2022-12-18T08:09:00;-8.50;99.90
32322;DHT22;61553;48.994;8.940;2022-12-18T08:11:27;-8.40;99.90
32322;DHT22;61553;48.994;8.940;2022-12-18T08:13:53;-8.40;99.90
32322;DHT22;61553;48.994;8.940;2022-12-18T08:16:20;-8.30;99.90
32322;DHT22;61553;48.994;8.940;2022-12-18T08:18:45;-8.20;99.90
32322;DHT22;61553;48.994;8.940;2022-12-18T08:21:22;-8.10;99.90
32322;DHT22;61553;48.994;8.940;2022-12-18T08:23:50;-8.10;99.90
32322;DHT22;61553;48.994;8.940;2022-12-18T08:26:16;-8.00;99.90
32322;DHT22;61553;48.994;8.940;2022-12-18T08:28:42;-7.90;99.90
32322;DHT22;61553;48.994;8.940;2022-12-18T08:31:08;-7.80;99.90
32322;DHT22;61553;48.994;8.940;2022-12-18T08:33:36;-7.70;99.90
32322;DHT22;61553;48.994;8.940;2022-12-18T08:36:03;-7.60;99.90
32322;DHT22;61553;48.994;8.940;2022-12-18T08:38:29;-7.50;99.90
32322;DHT22;61553;48.994;8.940;2022-12-18T08:41:03;-7.50;99.90
32322;DHT22;61553;48.994;8.940;2022-12-18T08:43:29;-7.40;99.90
32322;DHT22;61553;48.994;8.940;2022-12-18T08:46:20;-7.20;99.90
32322;DHT22;61553;48.994;8.940;2022-12-18T08:48:46;-7.10;99.90
32322;DHT22;61553;48.994;8.940;2022-12-18T08:51:12;-7.10;99.90
32322;DHT22;61553;48.994;8.940;2022-12-18T08:53:38;-7.10;99.90
32322;DHT22;61553;48.994;8.940;2022-12-18T08:56:04;-7.00;99.90
32322;DHT22;61553;48.994;8.940;2022-12-18T08:58:30;-6.80;99.90
32322;DHT22;61553;48.994;8.940;2022-12-18T09:01:00;-6.70;99.90
32322;DHT22;61553;48.994;8.940;2022-12-18T09:03:27;-6.60;99.90
32322;DHT22;61553;48.994;8.940;2022-12-18T09:05:52;-6.40;99.90
32322;DHT22;61553;48.994;8.940;2022-12-18T09:08:18;-6.40;99.90
32322;DHT22;61553;48.994;8.940;2022-12-18T09:10:45;-6.30;99.90
32322;DHT22;61553;48.994;8.940;2022-12-18T09:13:12;-6.20;99.90
32322;DHT22;61553;48.994;8.940;2022-12-18T09:15:45;-6.00;99.90
32322;DHT22;61553;48.994;8.940;2022-12-18T09:18:12;-5.90;99.90
32322;DHT22;61553;48.994;8.940;2022-12-18T09:20:39;-5.40;99.90
32322;DHT22;61553;48.994;8.940;2022-12-18T09:23:05;-4.70;99.90
32322;DHT22;61553;48.994;8.940;2022-12-18T09:25:32;-3.60;99.90
32322;DHT22;61553;48.994;8.940;2022-12-18T09:28:13;-2.60;99.90
32322;DHT22;61553;48.994;8.940;2022-12-18T09:30:47;-1.70;99.90
32322;DHT22;61553;48.994;8.940;2022-12-18T09:33:14;-0.80;99.90
32322;DHT22;61553;48.994;8.940;2022-12-18T09:35:41;-0.20;99.90
32322;DHT22;61553;48.994;8.940;2022-12-18T09:38:11;0.30;99.90
32322;DHT22;61553;48.994;8.940;2022-12-18T09:43:46;0.70;99.90
32322;DHT22;61553;48.994;8.940;2022-12-18T09:46:31;1.00;99.90
32322;DHT22;61553;48.994;8.940;2022-12-18T09:49:02;0.70;99.90
32322;DHT22;61553;48.994;8.940;2022-12-18T09:51:33;1.30;99.90
32322;DHT22;61553;48.994;8.940;2022-12-18T09:54:04;1.30;99.90
32322;DHT22;61553;48.994;8.940;2022-12-18T09:56:35;1.80;99.90
32322;DHT22;61553;48.994;8.940;2022-12-18T09:59:04;1.70;98.90
32322;DHT22;61553;48.994;8.940;2022-12-18T10:01:31;2.20;98.80
32322;DHT22;61553;48.994;8.940;2022-12-18T10:03:57;2.90;96.80
32322;DHT22;61553;48.994;8.940;2022-12-18T10:09:13;3.40;95.10
32322;DHT22;61553;48.994;8.940;2022-12-18T10:14:54;3.30;94.00
32322;DHT22;61553;48.994;8.940;2022-12-18T10:20:45;2.80;94.70
32322;DHT22;61553;48.994;8.940;2022-12-18T10:23:15;3.90;92.00
32322;DHT22;61553;48.994;8.940;2022-12-18T10:28:20;4.40;90.80
32322;DHT22;61553;48.994;8.940;2022-12-18T10:30:46;4.50;90.10
32322;DHT22;61553;48.994;8.940;2022-12-18T10:33:18;4.30;90.80
32322;DHT22;61553;48.994;8.940;2022-12-18T10:35:45;4.40;90.00
32322;DHT22;61553;48.994;8.940;2022-12-18T10:40:53;4.00;89.10
32322;DHT22;61553;48.994;8.940;2022-12-18T10:43:25;3.70;88.90
32322;DHT22;61553;48.994;8.940;2022-12-18T10:51:06;3.80;89.50
32322;DHT22;61553;48.994;8.940;2022-12-18T10:53:33;3.50;90.10
32322;DHT22;61553;48.994;8.940;2022-12-18T10:55:59;2.50;91.10
32322;DHT22;61553;48.994;8.940;2022-12-18T10:58:31;1.70;93.10
32322;DHT22;61553;48.994;8.940;2022-12-18T11:01:05;1.00;94.80
32322;DHT22;61553;48.994;8.940;2022-12-18T11:06:20;-0.10;99.60
32322;DHT22;61553;48.994;8.940;2022-12-18T11:09:03;-0.60;99.90
32322;DHT22;61553;48.994;8.940;2022-12-18T11:11:29;-0.60;99.90
32322;DHT22;61553;48.994;8.940;2022-12-18T11:14:05;-0.90;99.90
32322;DHT22;61553;48.994;8.940;2022-12-18T11:16:37;-1.00;99.90
32322;DHT22;61553;48.994;8.940;2022-12-18T11:19:32;-1.10;99.90
32322;DHT22;61553;48.994;8.940;2022-12-18T11:21:58;-1.30;99.90
32322;DHT22;61553;48.994;8.940;2022-12-18T11:24:27;-1.40;99.90
32322;DHT22;61553;48.994;8.940;2022-12-18T11:26:55;-1.40;99.90
32322;DHT22;61553;48.994;8.940;2022-12-18T11:29:34;-1.50;99.90
32322;DHT22;61553;48.994;8.940;2022-12-18T11:34:47;-1.30;99.90
32322;DHT22;61553;48.994;8.940;2022-12-18T11:37:14;-1.40;99.90
32322;DHT22;61553;48.994;8.940;2022-12-18T11:39:46;-1.50;99.90
32322;DHT22;61553;48.994;8.940;2022-12-18T11:47:47;-1.50;99.90
32322;DHT22;61553;48.994;8.940;2022-12-18T11:52:43;-1.40;99.90
32322;DHT22;61553;48.994;8.940;2022-12-18T11:55:14;-1.30;99.90
32322;DHT22;61553;48.994;8.940;2022-12-18T11:57:59;-1.30;99.90
32322;DHT22;61553;48.994;8.940;2022-12-18T12:00:27;-1.40;99.90
32322;DHT22;61553;48.994;8.940;2022-12-18T12:03:28;-1.40;99.90
32322;DHT22;61553;48.994;8.940;2022-12-18T12:06:10;-1.30;99.90
32322;DHT22;61553;48.994;8.940;2022-12-18T12:23:11;-1.20;99.90
32322;DHT22;61553;48.994;8.940;2022-12-18T12:26:06;-1.20;99.90
32322;DHT22;61553;48.994;8.940;2022-12-18T12:29:09;-1.20;99.90
32322;DHT22;61553;48.994;8.940;2022-12-18T12:31:53;-1.00;99.90
32322;DHT22;61553;48.994;8.940;2022-12-18T12:34:26;-0.90;99.90
32322;DHT22;61553;48.994;8.940;2022-12-18T12:39:40;-0.80;99.90
32322;DHT22;61553;48.994;8.940;2022-12-18T12:42:12;-0.60;99.90
32322;DHT22;61553;48.994;8.940;2022-12-18T12:44:58;-0.70;99.90
32322;DHT22;61553;48.994;8.940;2022-12-18T12:47:37;-0.80;99.90
32322;DHT22;61553;48.994;8.940;2022-12-18T12:50:06;-0.80;99.90
32322;DHT22;61553;48.994;8.940;2022-12-18T12:52:44;-0.70;99.90
32322;DHT22;61553;48.994;8.940;2022-12-18T12:55:36;-0.90;99.90
32322;DHT22;61553;48.994;8.940;2022-12-18T12:58:23;-0.60;99.90
32322;DHT22;61553;48.994;8.940;2022-12-18T13:01:38;-0.60;99.90
32322;DHT22;61553;48.994;8.940;2022-12-18T13:04:15;-0.50;99.90
32322;DHT22;61553;48.994;8.940;2022-12-18T13:09:22;-0.60;99.90
32322;DHT22;61553;48.994;8.940;2022-12-18T13:11:48;-0.60;99.90
32322;DHT22;61553;48.994;8.940;2022-12-18T13:14:34;-0.60;99.90
32322;DHT22;61553;48.994;8.940;2022-12-18T13:19:44;-0.60;99.90
32322;DHT22;61553;48.994;8.940;2022-12-18T13:22:25;-0.60;99.90
32322;DHT22;61553;48.994;8.940;2022-12-18T13:24:53;-0.60;99.90
32322;DHT22;61553;48.994;8.940;2022-12-18T13:38:25;-0.60;99.90
32322;DHT22;61553;48.994;8.940;2022-12-18T13:41:24;-0.60;99.90
32322;DHT22;61553;48.994;8.940;2022-12-18T13:43:54;-0.70;99.90
32322;DHT22;61553;48.994;8.940;2022-12-18T13:46:29;-0.60;99.90
32322;DHT22;61553;48.994;8.940;2022-12-18T13:51:26;-0.70;99.90
32322;DHT22;61553;48.994;8.940;2022-12-18T13:54:02;-0.80;99.90
32322;DHT22;61553;48.994;8.940;2022-12-18T13:56:32;-0.80;99.90
32322;DHT22;61553;48.994;8.940;2022-12-18T13:59:21;-0.90;99.90
32322;DHT22;61553;48.994;8.940;2022-12-18T14:01:54;-0.80;99.90
32322;DHT22;61553;48.994;8.940;2022-12-18T14:04:29;-1.00;99.90
32322;DHT22;61553;48.994;8.940;2022-12-18T14:07:06;-1.00;99.90
32322;DHT22;61553;48.994;8.940;2022-12-18T14:09:43;-1.10;99.90
32322;DHT22;61553;48.994;8.940;2022-12-18T14:12:32;-1.10;99.90
32322;DHT22;61553;48.994;8.940;2022-12-18T14:21:06;-1.40;99.90
32322;DHT22;61553;48.994;8.940;2022-12-18T14:23:41;-1.40;99.90
32322;DHT22;61553;48.994;8.940;2022-12-18T14:26:39;-1.50;99.90
32322;DHT22;61553;48.994;8.940;2022-12-18T14:29:34;-1.50;99.90
32322;DHT22;61553;48.994;8.940;2022-12-18T14:32:13;-1.60;99.90
32322;DHT22;61553;48.994;8.940;2022-12-18T14:34:45;-1.70;99.90
32322;DHT22;61553;48.994;8.940;2022-12-18T14:37:13;-1.80;99.90
32322;DHT22;61553;48.994;8.940;2022-12-18T14:39:39;-1.80;99.90
32322;DHT22;61553;48.994;8.940;2022-12-18T14:42:05;-1.90;99.90
32322;DHT22;61553;48.994;8.940;2022-12-18T14:44:31;-1.80;99.90
32322;DHT22;61553;48.994;8.940;2022-12-18T14:46:56;-1.90;99.90
32322;DHT22;61553;48.994;8.940;2022-12-18T14:49:29;-2.00;99.90
32322;DHT22;61553;48.994;8.940;2022-12-18T14:51:59;-1.90;99.90
32322;DHT22;61553;48.994;8.940;2022-12-18T14:54:28;-2.10;99.90
32322;DHT22;61553;48.994;8.940;2022-12-18T14:57:24;-2.20;99.90
32322;DHT22;61553;48.994;8.940;2022-12-18T14:59:52;-2.30;99.90
32322;DHT22;61553;48.994;8.940;2022-12-18T15:02:26;-2.30;99.90
32322;DHT22;61553;48.994;8.940;2022-12-18T15:05:05;-2.40;99.90
32322;DHT22;61553;48.994;8.940;2022-12-18T15:07:44;-2.40;99.90
32322;DHT22;61553;48.994;8.940;2022-12-18T15:20:52;-2.60;99.90
32322;DHT22;61553;48.994;8.940;2022-12-18T15:23:19;-2.70;99.90
32322;DHT22;61553;48.994;8.940;2022-12-18T15:25:47;-2.80;99.90
32322;DHT22;61553;48.994;8.940;2022-12-18T15:33:43;-3.00;99.90
32322;DHT22;61553;48.994;8.940;2022-12-18T15:36:16;-3.00;99.90
32322;DHT22;61553;48.994;8.940;2022-12-18T15:38:49;-3.00;99.90
32322;DHT22;61553;48.994;8.940;2022-12-18T15:41:20;-3.10;99.90
32322;DHT22;61553;48.994;8.940;2022-12-18T15:43:48;-3.10;99.90
32322;DHT22;61553;48.994;8.940;2022-12-18T15:46:22;-3.20;99.90
32322;DHT22;61553;48.994;8.940;2022-12-18T15:48:56;-3.20;99.90
32322;DHT22;61553;48.994;8.940;2022-12-18T15:51:28;-3.20;99.90
32322;DHT22;61553;48.994;8.940;2022-12-18T15:53:56;-3.30;99.90
32322;DHT22;61553;48.994;8.940;2022-12-18T15:56:24;-3.30;99.90
32322;DHT22;61553;48.994;8.940;2022-12-18T15:59:14;-3.30;99.90
32322;DHT22;61553;48.994;8.940;2022-12-18T16:01:41;-3.40;99.90
32322;DHT22;61553;48.994;8.940;2022-12-18T16:04:11;-3.40;99.90
32322;DHT22;61553;48.994;8.940;2022-12-18T16:06:37;-3.50;99.90
32322;DHT22;61553;48.994;8.940;2022-12-18T16:09:03;-3.50;99.90
32322;DHT22;61553;48.994;8.940;2022-12-18T16:11:31;-2.80;99.90
32322;DHT22;61553;48.994;8.940;2022-12-18T16:14:17;-3.50;99.90
32322;DHT22;61553;48.994;8.940;2022-12-18T16:16:44;-3.50;99.90
32322;DHT22;61553;48.994;8.940;2022-12-18T16:19:10;-3.50;99.90
32322;DHT22;61553;48.994;8.940;2022-12-18T16:21:35;-3.50;99.90
32322;DHT22;61553;48.994;8.940;2022-12-18T16:24:01;-3.40;99.90
32322;DHT22;61553;48.994;8.940;2022-12-18T16:26:27;-3.40;99.90
32322;DHT22;61553;48.994;8.940;2022-12-18T16:28:53;-3.40;99.90
32322;DHT22;61553;48.994;8.940;2022-12-18T16:31:19;-3.40;99.90
32322;DHT22;61553;48.994;8.940;2022-12-18T16:33:44;-3.30;99.90
32322;DHT22;61553;48.994;8.940;2022-12-18T16:36:10;-3.30;99.90
32322;DHT22;61553;48.994;8.940;2022-12-18T16:38:36;-3.30;99.90
32322;DHT22;61553;48.994;8.940;2022-12-18T16:41:01;-3.30;99.90
32322;DHT22;61553;48.994;8.940;2022-12-18T16:43:50;-3.20;99.90
32322;DHT22;61553;48.994;8.940;2022-12-18T16:46:15;-3.30;99.90
32322;DHT22;61553;48.994;8.940;2022-12-18T16:48:41;-3.30;99.90
32322;DHT22;61553;48.994;8.940;2022-12-18T16:51:07;-3.20;99.90
32322;DHT22;61553;48.994;8.940;2022-12-18T16:53:32;-3.20;99.90
32322;DHT22;61553;48.994;8.940;2022-12-18T16:55:58;-3.20;99.90
32322;DHT22;61553;48.994;8.940;2022-12-18T16:58:24;-3.10;99.90
32322;DHT22;61553;48.994;8.940;2022-12-18T17:00:49;-3.10;99.90
32322;DHT22;61553;48.994;8.940;2022-12-18T17:03:15;-3.10;99.90
32322;DHT22;61553;48.994;8.940;2022-12-18T17:05:41;-3.00;99.90
32322;DHT22;61553;48.994;8.940;2022-12-18T17:08:06;-3.00;99.90
32322;DHT22;61553;48.994;8.940;2022-12-18T17:10:35;-3.00;99.90
32322;DHT22;61553;48.994;8.940;2022-12-18T17:13:01;-2.90;99.90
32322;DHT22;61553;48.994;8.940;2022-12-18T17:15:26;-2.80;99.90
32322;DHT22;61553;48.994;8.940;2022-12-18T17:17:52;-2.90;99.90
32322;DHT22;61553;48.994;8.940;2022-12-18T17:20:17;-2.80;99.90
32322;DHT22;61553;48.994;8.940;2022-12-18T17:22:43;-2.70;99.90
32322;DHT22;61553;48.994;8.940;2022-12-18T17:25:09;-2.80;99.90
32322;DHT22;61553;48.994;8.940;2022-12-18T17:27:34;-2.80;99.90
32322;DHT22;61553;48.994;8.940;2022-12-18T17:30:00;-2.80;99.90
32322;DHT22;61553;48.994;8.940;2022-12-18T17:32:26;-2.70;99.90
32322;DHT22;61553;48.994;8.940;2022-12-18T17:34:52;-2.80;99.90
32322;DHT22;61553;48.994;8.940;2022-12-18T17:37:18;-2.80;99.90
32322;DHT22;61553;48.994;8.940;2022-12-18T17:39:43;-2.70;99.90
32322;DHT22;61553;48.994;8.940;2022-12-18T17:42:09;-2.70;99.90
32322;DHT22;61553;48.994;8.940;2022-12-18T17:44:35;-2.70;99.90
32322;DHT22;61553;48.994;8.940;2022-12-18T17:47:01;-2.70;99.90
32322;DHT22;61553;48.994;8.940;2022-12-18T17:49:27;-2.70;99.90